sensor_id;sensor_type;location;lat;lon;timestamp;pressure;altitude;pressure_sealevel;temperature;humidity
51468;BME280;37545;45.302;-122.946;2023-02-12T00:01:26;101701.75;;;12.69;56.20
51468;BME280;37545;45.302;-122.946;2023-02-12T00:03:54;101701.78;;;12.71;56.36
51468;BME280;37545;45.302;-122.946;2023-02-12T00:06:23;101705.22;;;12.70;56.23
51468;BME280;37545;45.302;-122.946;2023-02-12T00:08:53;101700.78;;;12.67;56.04
51468;BME280;37545;45.302;-122.946;2023-02-12T00:11:23;101714.59;;;12.66;56.03
51468;BME280;37545;45.302;-122.946;2023-02-12T00:13:54;101707.53;;;12.62;56.48
51468;BME280;37545;45.302;-122.946;2023-02-12T00:16:24;101709.06;;;12.57;56.85
51468;BME280;37545;45.302;-122.946;2023-02-12T00:18:55;101712.25;;;12.50;57.90
51468;BME280;37545;45.302;-122.946;2023-02-12T00:21:24;101718.16;;;12.46;57.49
51468;BME280;37545;45.302;-122.946;2023-02-12T00:23:53;101725.75;;;12.40;57.79
51468;BME280;37545;45.302;-122.946;2023-02-12T00:26:22;101727.25;;;12.34;58.02
51468;BME280;37545;45.302;-122.946;2023-02-12T00:28:50;101724.44;;;12.28;58.64
51468;BME280;37545;45.302;-122.946;2023-02-12T00:31:22;101722.44;;;12.21;57.95
51468;BME280;37545;45.302;-122.946;2023-02-12T00:33:51;101718.78;;;12.16;59.15
51468;BME280;37545;45.302;-122.946;2023-02-12T00:36:23;101722.03;;;12.10;59.45
51468;BME280;37545;45.302;-122.946;2023-02-12T00:38:54;101726.09;;;12.04;59.27
51468;BME280;37545;45.302;-122.946;2023-02-12T00:41:23;101723.25;;;11.98;61.75
51468;BME280;37545;45.302;-122.946;2023-02-12T00:43:52;101707.41;;;11.90;61.63
51468;BME280;37545;45.302;-122.946;2023-02-12T00:46:22;101708.16;;;11.87;62.93
51468;BME280;37545;45.302;-122.946;2023-02-12T00:48:51;101713.84;;;11.79;63.06
51468;BME280;37545;45.302;-122.946;2023-02-12T00:51:19;101707.47;;;11.70;62.24
51468;BME280;37545;45.302;-122.946;2023-02-12T00:53:55;101700.97;;;11.59;62.92
51468;BME280;37545;45.302;-122.946;2023-02-12T00:56:23;101694.50;;;11.49;63.73
51468;BME280;37545;45.302;-122.946;2023-02-12T00:58:52;101697.06;;;11.48;63.66
51468;BME280;37545;45.302;-122.946;2023-02-12T01:01:22;101695.22;;;11.45;62.72
51468;BME280;37545;45.302;-122.946;2023-02-12T01:03:50;101686.16;;;11.36;62.92
51468;BME280;37545;45.302;-122.946;2023-02-12T01:06:19;101697.25;;;11.31;63.71
51468;BME280;37545;45.302;-122.946;2023-02-12T01:08:50;101700.56;;;11.29;65.22
51468;BME280;37545;45.302;-122.946;2023-02-12T01:11:28;101700.47;;;11.26;64.95
51468;BME280;37545;45.302;-122.946;2023-02-12T01:13:56;101703.88;;;11.25;65.56
51468;BME280;37545;45.302;-122.946;2023-02-12T01:16:27;101711.69;;;11.26;65.80
51468;BME280;37545;45.302;-122.946;2023-02-12T01:18:59;101716.00;;;11.26;65.84
51468;BME280;37545;45.302;-122.946;2023-02-12T01:21:29;101722.75;;;11.22;66.50
51468;BME280;37545;45.302;-122.946;2023-02-12T01:23:59;101718.19;;;11.17;67.22
51468;BME280;37545;45.302;-122.946;2023-02-12T01:26:28;101717.19;;;11.13;67.26
51468;BME280;37545;45.302;-122.946;2023-02-12T01:29:00;101716.06;;;11.06;67.64
51468;BME280;37545;45.302;-122.946;2023-02-12T01:31:32;101711.56;;;11.02;65.95
51468;BME280;37545;45.302;-122.946;2023-02-12T01:34:01;101714.00;;;10.99;66.45
51468;BME280;37545;45.302;-122.946;2023-02-12T01:36:30;101718.09;;;10.94;66.54
51468;BME280;37545;45.302;-122.946;2023-02-12T01:38:59;101721.25;;;10.87;66.23
51468;BME280;37545;45.302;-122.946;2023-02-12T01:41:30;101717.38;;;10.77;66.83
51468;BME280;37545;45.302;-122.946;2023-02-12T01:44:07;101718.59;;;10.66;68.21
51468;BME280;37545;45.302;-122.946;2023-02-12T01:46:37;101723.56;;;10.61;68.40
51468;BME280;37545;45.302;-122.946;2023-02-12T01:49:10;101707.50;;;10.49;68.64
51468;BME280;37545;45.302;-122.946;2023-02-12T01:51:40;101721.31;;;10.50;68.80
51468;BME280;37545;45.302;-122.946;2023-02-12T01:54:12;101718.16;;;10.37;71.25
51468;BME280;37545;45.302;-122.946;2023-02-12T01:56:49;101726.41;;;10.29;71.23
51468;BME280;37545;45.302;-122.946;2023-02-12T01:59:18;101723.19;;;10.16;71.13
51468;BME280;37545;45.302;-122.946;2023-02-12T02:01:48;101726.19;;;10.06;72.06
51468;BME280;37545;45.302;-122.946;2023-02-12T02:04:21;101730.91;;;9.97;71.88
51468;BME280;37545;45.302;-122.946;2023-02-12T02:06:56;101730.31;;;9.84;73.57
51468;BME280;37545;45.302;-122.946;2023-02-12T02:09:26;101731.66;;;9.76;72.42
51468;BME280;37545;45.302;-122.946;2023-02-12T02:11:55;101734.59;;;9.66;73.34
51468;BME280;37545;45.302;-122.946;2023-02-12T02:14:42;101741.03;;;9.56;74.27
51468;BME280;37545;45.302;-122.946;2023-02-12T02:17:39;101742.91;;;9.42;75.95
51468;BME280;37545;45.302;-122.946;2023-02-12T02:20:33;101748.69;;;9.37;76.54
51468;BME280;37545;45.302;-122.946;2023-02-12T02:23:26;101747.72;;;9.35;76.35
51468;BME280;37545;45.302;-122.946;2023-02-12T02:26:16;101753.63;;;9.32;75.74
51468;BME280;37545;45.302;-122.946;2023-02-12T02:29:08;101754.91;;;9.24;75.31
51468;BME280;37545;45.302;-122.946;2023-02-12T02:31:45;101755.47;;;9.18;76.24
51468;BME280;37545;45.302;-122.946;2023-02-12T02:34:16;101755.09;;;9.11;75.94
51468;BME280;37545;45.302;-122.946;2023-02-12T02:36:55;101757.03;;;8.98;77.41
51468;BME280;37545;45.302;-122.946;2023-02-12T02:39:28;101748.59;;;8.85;78.11
51468;BME280;37545;45.302;-122.946;2023-02-12T02:42:07;101739.63;;;8.78;78.03
51468;BME280;37545;45.302;-122.946;2023-02-12T02:44:45;101741.88;;;8.72;79.04
51468;BME280;37545;45.302;-122.946;2023-02-12T02:47:21;101747.28;;;8.60;80.15
51468;BME280;37545;45.302;-122.946;2023-02-12T02:49:53;101743.81;;;8.43;81.39
51468;BME280;37545;45.302;-122.946;2023-02-12T02:52:29;101740.84;;;8.37;82.23
51468;BME280;37545;45.302;-122.946;2023-02-12T02:55:06;101732.97;;;8.34;83.13
51468;BME280;37545;45.302;-122.946;2023-02-12T02:57:40;101742.38;;;8.33;82.98
51468;BME280;37545;45.302;-122.946;2023-02-12T03:00:15;101747.38;;;8.30;82.24
51468;BME280;37545;45.302;-122.946;2023-02-12T03:02:49;101738.41;;;8.24;82.40
51468;BME280;37545;45.302;-122.946;2023-02-12T03:05:21;101729.38;;;8.15;82.02
51468;BME280;37545;45.302;-122.946;2023-02-12T03:07:54;101747.34;;;8.14;82.07
51468;BME280;37545;45.302;-122.946;2023-02-12T03:10:28;101740.94;;;8.07;82.44
51468;BME280;37545;45.302;-122.946;2023-02-12T03:13:02;101744.78;;;7.99;82.77
51468;BME280;37545;45.302;-122.946;2023-02-12T03:15:38;101739.47;;;7.96;83.33
51468;BME280;37545;45.302;-122.946;2023-02-12T03:18:12;101730.81;;;7.79;82.46
51468;BME280;37545;45.302;-122.946;2023-02-12T03:20:47;101726.38;;;7.62;82.84
51468;BME280;37545;45.302;-122.946;2023-02-12T03:23:23;101733.84;;;7.57;83.81
51468;BME280;37545;45.302;-122.946;2023-02-12T03:25:56;101749.13;;;7.54;84.53
51468;BME280;37545;45.302;-122.946;2023-02-12T03:28:29;101745.56;;;7.52;85.81
51468;BME280;37545;45.302;-122.946;2023-02-12T03:31:06;101755.88;;;7.52;85.43
51468;BME280;37545;45.302;-122.946;2023-02-12T03:33:45;101759.78;;;7.45;85.24
51468;BME280;37545;45.302;-122.946;2023-02-12T03:36:28;101758.69;;;7.42;85.38
51468;BME280;37545;45.302;-122.946;2023-02-12T03:39:05;101756.78;;;7.38;85.47
51468;BME280;37545;45.302;-122.946;2023-02-12T03:41:41;101766.88;;;7.34;85.79
51468;BME280;37545;45.302;-122.946;2023-02-12T03:44:19;101762.97;;;7.26;84.44
51468;BME280;37545;45.302;-122.946;2023-02-12T03:46:57;101767.31;;;7.12;84.86
51468;BME280;37545;45.302;-122.946;2023-02-12T03:49:31;101779.69;;;7.05;85.29
51468;BME280;37545;45.302;-122.946;2023-02-12T03:52:02;101778.53;;;7.00;85.61
51468;BME280;37545;45.302;-122.946;2023-02-12T03:54:31;101779.13;;;6.96;86.10
51468;BME280;37545;45.302;-122.946;2023-02-12T03:57:06;101783.13;;;6.90;86.30
51468;BME280;37545;45.302;-122.946;2023-02-12T03:59:38;101781.34;;;6.89;86.80
51468;BME280;37545;45.302;-122.946;2023-02-12T04:02:08;101783.72;;;6.86;86.60
51468;BME280;37545;45.302;-122.946;2023-02-12T04:04:39;101781.03;;;6.85;86.99
51468;BME280;37545;45.302;-122.946;2023-02-12T04:07:07;101779.00;;;6.79;86.50
51468;BME280;37545;45.302;-122.946;2023-02-12T04:09:37;101777.84;;;6.74;86.35
51468;BME280;37545;45.302;-122.946;2023-02-12T04:12:20;101780.03;;;6.68;87.12
51468;BME280;37545;45.302;-122.946;2023-02-12T04:15:03;101786.56;;;6.63;85.82
51468;BME280;37545;45.302;-122.946;2023-02-12T04:17:42;101782.72;;;6.56;87.60
51468;BME280;37545;45.302;-122.946;2023-02-12T04:20:22;101782.63;;;6.55;87.47
51468;BME280;37545;45.302;-122.946;2023-02-12T04:23:01;101787.41;;;6.48;87.02
51468;BME280;37545;45.302;-122.946;2023-02-12T04:25:45;101792.16;;;6.42;87.97
51468;BME280;37545;45.302;-122.946;2023-02-12T04:28:27;101792.66;;;6.37;87.53
51468;BME280;37545;45.302;-122.946;2023-02-12T04:31:02;101787.91;;;6.29;88.01
51468;BME280;37545;45.302;-122.946;2023-02-12T04:33:37;101785.84;;;6.24;87.89
51468;BME280;37545;45.302;-122.946;2023-02-12T04:36:12;101796.63;;;6.18;88.26
51468;BME280;37545;45.302;-122.946;2023-02-12T04:38:47;101798.91;;;6.14;87.89
51468;BME280;37545;45.302;-122.946;2023-02-12T04:41:18;101790.81;;;6.07;88.67
51468;BME280;37545;45.302;-122.946;2023-02-12T04:43:47;101785.28;;;6.01;88.10
51468;BME280;37545;45.302;-122.946;2023-02-12T04:46:16;101788.53;;;5.99;88.67
51468;BME280;37545;45.302;-122.946;2023-02-12T04:48:52;101795.03;;;5.94;88.15
51468;BME280;37545;45.302;-122.946;2023-02-12T04:51:23;101795.50;;;5.88;87.94
51468;BME280;37545;45.302;-122.946;2023-02-12T04:53:52;101800.47;;;5.85;88.64
51468;BME280;37545;45.302;-122.946;2023-02-12T04:56:20;101800.03;;;5.79;88.69
51468;BME280;37545;45.302;-122.946;2023-02-12T04:58:49;101801.63;;;5.77;89.58
51468;BME280;37545;45.302;-122.946;2023-02-12T05:01:19;101807.44;;;5.74;89.62
51468;BME280;37545;45.302;-122.946;2023-02-12T05:03:47;101813.28;;;5.72;89.12
51468;BME280;37545;45.302;-122.946;2023-02-12T05:06:16;101812.09;;;5.66;88.84
51468;BME280;37545;45.302;-122.946;2023-02-12T05:08:47;101812.88;;;5.65;89.21
51468;BME280;37545;45.302;-122.946;2023-02-12T05:11:16;101806.53;;;5.60;88.41
51468;BME280;37545;45.302;-122.946;2023-02-12T05:13:47;101811.47;;;5.57;89.72
51468;BME280;37545;45.302;-122.946;2023-02-12T05:16:17;101806.94;;;5.53;89.54
51468;BME280;37545;45.302;-122.946;2023-02-12T05:18:46;101813.63;;;5.51;90.02
51468;BME280;37545;45.302;-122.946;2023-02-12T05:21:15;101808.38;;;5.50;89.33
51468;BME280;37545;45.302;-122.946;2023-02-12T05:23:44;101791.50;;;5.40;89.13
51468;BME280;37545;45.302;-122.946;2023-02-12T05:26:16;101809.44;;;5.40;89.55
51468;BME280;37545;45.302;-122.946;2023-02-12T05:28:45;101818.63;;;5.36;89.34
51468;BME280;37545;45.302;-122.946;2023-02-12T05:31:15;101811.31;;;5.29;89.79
51468;BME280;37545;45.302;-122.946;2023-02-12T05:33:45;101812.19;;;5.30;90.55
51468;BME280;37545;45.302;-122.946;2023-02-12T05:36:16;101810.09;;;5.24;90.70
51468;BME280;37545;45.302;-122.946;2023-02-12T05:38:45;101809.09;;;5.22;90.38
51468;BME280;37545;45.302;-122.946;2023-02-12T05:41:18;101815.84;;;5.08;90.32
51468;BME280;37545;45.302;-122.946;2023-02-12T05:43:47;101814.34;;;4.98;90.93
51468;BME280;37545;45.302;-122.946;2023-02-12T05:46:17;101811.25;;;4.91;91.54
51468;BME280;37545;45.302;-122.946;2023-02-12T05:48:47;101813.59;;;4.88;92.62
51468;BME280;37545;45.302;-122.946;2023-02-12T05:51:17;101802.13;;;4.82;92.14
51468;BME280;37545;45.302;-122.946;2023-02-12T05:53:48;101799.44;;;4.81;92.59
51468;BME280;37545;45.302;-122.946;2023-02-12T05:56:21;101813.19;;;4.81;93.54
51468;BME280;37545;45.302;-122.946;2023-02-12T05:58:52;101817.31;;;4.79;92.95
51468;BME280;37545;45.302;-122.946;2023-02-12T06:01:24;101826.56;;;4.77;93.58
51468;BME280;37545;45.302;-122.946;2023-02-12T06:03:53;101818.44;;;4.71;92.54
51468;BME280;37545;45.302;-122.946;2023-02-12T06:06:22;101817.59;;;4.59;93.70
51468;BME280;37545;45.302;-122.946;2023-02-12T06:08:52;101820.72;;;4.43;95.97
51468;BME280;37545;45.302;-122.946;2023-02-12T06:11:23;101840.03;;;4.38;96.95
51468;BME280;37545;45.302;-122.946;2023-02-12T06:13:51;101843.47;;;4.38;96.66
51468;BME280;37545;45.302;-122.946;2023-02-12T06:16:22;101844.34;;;4.39;96.10
51468;BME280;37545;45.302;-122.946;2023-02-12T06:18:51;101847.03;;;4.40;96.73
51468;BME280;37545;45.302;-122.946;2023-02-12T06:21:21;101853.94;;;4.41;95.97
51468;BME280;37545;45.302;-122.946;2023-02-12T06:23:50;101848.59;;;4.38;95.10
51468;BME280;37545;45.302;-122.946;2023-02-12T06:26:21;101841.34;;;4.33;95.29
51468;BME280;37545;45.302;-122.946;2023-02-12T06:28:51;101854.38;;;4.36;96.05
51468;BME280;37545;45.302;-122.946;2023-02-12T06:31:21;101852.50;;;4.33;95.42
51468;BME280;37545;45.302;-122.946;2023-02-12T06:33:51;101857.84;;;4.36;95.37
51468;BME280;37545;45.302;-122.946;2023-02-12T06:36:20;101864.53;;;4.34;95.32
51468;BME280;37545;45.302;-122.946;2023-02-12T06:38:49;101858.38;;;4.32;94.86
51468;BME280;37545;45.302;-122.946;2023-02-12T06:41:18;101864.31;;;4.31;94.45
51468;BME280;37545;45.302;-122.946;2023-02-12T06:43:49;101864.06;;;4.28;94.60
51468;BME280;37545;45.302;-122.946;2023-02-12T06:46:18;101856.28;;;4.27;94.61
51468;BME280;37545;45.302;-122.946;2023-02-12T06:48:47;101862.97;;;4.25;94.44
51468;BME280;37545;45.302;-122.946;2023-02-12T06:51:17;101855.84;;;4.20;94.11
51468;BME280;37545;45.302;-122.946;2023-02-12T06:53:47;101870.44;;;4.22;94.51
51468;BME280;37545;45.302;-122.946;2023-02-12T06:56:16;101864.97;;;4.17;94.76
51468;BME280;37545;45.302;-122.946;2023-02-12T06:58:51;101859.63;;;4.14;94.73
51468;BME280;37545;45.302;-122.946;2023-02-12T07:01:22;101861.97;;;4.11;94.43
51468;BME280;37545;45.302;-122.946;2023-02-12T07:03:52;101859.19;;;4.08;95.07
51468;BME280;37545;45.302;-122.946;2023-02-12T07:06:22;101872.00;;;4.08;95.72
51468;BME280;37545;45.302;-122.946;2023-02-12T07:08:51;101859.75;;;4.04;94.94
51468;BME280;37545;45.302;-122.946;2023-02-12T07:11:23;101866.63;;;4.05;94.93
51468;BME280;37545;45.302;-122.946;2023-02-12T07:13:53;101864.63;;;4.01;96.19
51468;BME280;37545;45.302;-122.946;2023-02-12T07:16:22;101867.31;;;4.02;96.07
51468;BME280;37545;45.302;-122.946;2023-02-12T07:18:51;101871.53;;;4.02;96.89
51468;BME280;37545;45.302;-122.946;2023-02-12T07:21:20;101864.63;;;4.01;96.82
51468;BME280;37545;45.302;-122.946;2023-02-12T07:23:50;101862.06;;;4.01;97.26
51468;BME280;37545;45.302;-122.946;2023-02-12T07:26:20;101856.72;;;3.97;97.51
51468;BME280;37545;45.302;-122.946;2023-02-12T07:28:49;101842.16;;;3.96;97.51
51468;BME280;37545;45.302;-122.946;2023-02-12T07:31:21;101835.00;;;3.92;96.97
51468;BME280;37545;45.302;-122.946;2023-02-12T07:33:54;101835.78;;;3.91;97.26
51468;BME280;37545;45.302;-122.946;2023-02-12T07:36:22;101827.66;;;3.85;97.29
51468;BME280;37545;45.302;-122.946;2023-02-12T07:38:52;101825.66;;;3.81;97.53
51468;BME280;37545;45.302;-122.946;2023-02-12T07:41:22;101814.84;;;3.73;97.94
51468;BME280;37545;45.302;-122.946;2023-02-12T07:43:54;101823.50;;;3.75;98.14
51468;BME280;37545;45.302;-122.946;2023-02-12T07:46:26;101826.19;;;3.77;98.24
51468;BME280;37545;45.302;-122.946;2023-02-12T07:48:57;101832.09;;;3.76;98.00
51468;BME280;37545;45.302;-122.946;2023-02-12T07:51:27;101831.19;;;3.75;97.95
51468;BME280;37545;45.302;-122.946;2023-02-12T07:53:58;101832.09;;;3.76;97.60
51468;BME280;37545;45.302;-122.946;2023-02-12T07:56:28;101835.41;;;3.75;97.94
51468;BME280;37545;45.302;-122.946;2023-02-12T07:58:59;101831.84;;;3.73;97.54
51468;BME280;37545;45.302;-122.946;2023-02-12T08:01:30;101843.00;;;3.73;97.80
51468;BME280;37545;45.302;-122.946;2023-02-12T08:04:01;101844.66;;;3.73;97.69
51468;BME280;37545;45.302;-122.946;2023-02-12T08:06:31;101850.69;;;3.73;97.55
51468;BME280;37545;45.302;-122.946;2023-02-12T08:09:03;101865.91;;;3.72;95.03
51468;BME280;37545;45.302;-122.946;2023-02-12T08:11:32;101863.78;;;3.66;96.19
51468;BME280;37545;45.302;-122.946;2023-02-12T08:14:01;101859.66;;;3.56;95.34
51468;BME280;37545;45.302;-122.946;2023-02-12T08:16:35;101868.34;;;3.59;95.34
51468;BME280;37545;45.302;-122.946;2023-02-12T08:19:05;101864.75;;;3.56;95.64
51468;BME280;37545;45.302;-122.946;2023-02-12T08:21:34;101856.75;;;3.52;95.99
51468;BME280;37545;45.302;-122.946;2023-02-12T08:24:03;101867.84;;;3.52;94.93
51468;BME280;37545;45.302;-122.946;2023-02-12T08:26:32;101861.38;;;3.46;93.70
51468;BME280;37545;45.302;-122.946;2023-02-12T08:29:03;101868.72;;;3.41;94.50
51468;BME280;37545;45.302;-122.946;2023-02-12T08:31:34;101869.28;;;3.37;94.93
51468;BME280;37545;45.302;-122.946;2023-02-12T08:34:03;101871.47;;;3.32;95.87
51468;BME280;37545;45.302;-122.946;2023-02-12T08:36:36;101873.13;;;3.32;96.05
51468;BME280;37545;45.302;-122.946;2023-02-12T08:39:06;101870.13;;;3.26;96.87
51468;BME280;37545;45.302;-122.946;2023-02-12T08:41:36;101876.16;;;3.16;97.54
51468;BME280;37545;45.302;-122.946;2023-02-12T08:44:05;101885.28;;;3.12;97.11
51468;BME280;37545;45.302;-122.946;2023-02-12T08:46:36;101881.72;;;3.10;97.54
51468;BME280;37545;45.302;-122.946;2023-02-12T08:49:07;101882.38;;;3.08;97.65
51468;BME280;37545;45.302;-122.946;2023-02-12T08:51:38;101891.94;;;3.10;97.17
51468;BME280;37545;45.302;-122.946;2023-02-12T08:54:10;101885.59;;;3.05;97.60
51468;BME280;37545;45.302;-122.946;2023-02-12T08:56:39;101886.47;;;3.06;97.22
51468;BME280;37545;45.302;-122.946;2023-02-12T08:59:09;101884.72;;;3.05;96.30
51468;BME280;37545;45.302;-122.946;2023-02-12T09:01:40;101874.34;;;3.03;96.53
51468;BME280;37545;45.302;-122.946;2023-02-12T09:04:13;101886.13;;;3.01;96.88
51468;BME280;37545;45.302;-122.946;2023-02-12T09:06:43;101879.22;;;3.00;97.00
51468;BME280;37545;45.302;-122.946;2023-02-12T09:09:13;101873.19;;;3.00;95.93
51468;BME280;37545;45.302;-122.946;2023-02-12T09:11:42;101865.19;;;2.95;95.31
51468;BME280;37545;45.302;-122.946;2023-02-12T09:14:18;101860.72;;;2.92;95.92
51468;BME280;37545;45.302;-122.946;2023-02-12T09:16:51;101866.72;;;2.93;95.96
51468;BME280;37545;45.302;-122.946;2023-02-12T09:19:20;101864.59;;;2.87;95.37
51468;BME280;37545;45.302;-122.946;2023-02-12T09:21:50;101847.53;;;2.76;96.29
51468;BME280;37545;45.302;-122.946;2023-02-12T09:24:19;101865.78;;;2.81;95.64
51468;BME280;37545;45.302;-122.946;2023-02-12T09:26:48;101867.19;;;2.77;95.13
51468;BME280;37545;45.302;-122.946;2023-02-12T09:29:17;101872.19;;;2.76;95.93
51468;BME280;37545;45.302;-122.946;2023-02-12T09:31:46;101872.84;;;2.73;96.40
51468;BME280;37545;45.302;-122.946;2023-02-12T09:34:16;101866.59;;;2.69;95.13
51468;BME280;37545;45.302;-122.946;2023-02-12T09:36:45;101867.47;;;2.70;94.73
51468;BME280;37545;45.302;-122.946;2023-02-12T09:39:13;101880.81;;;2.66;94.07
51468;BME280;37545;45.302;-122.946;2023-02-12T09:42:11;101875.44;;;2.63;94.36
51468;BME280;37545;45.302;-122.946;2023-02-12T09:44:45;101872.66;;;2.49;95.72
51468;BME280;37545;45.302;-122.946;2023-02-12T09:47:22;101886.63;;;2.43;96.53
51468;BME280;37545;45.302;-122.946;2023-02-12T09:50:05;101901.97;;;2.43;97.47
51468;BME280;37545;45.302;-122.946;2023-02-12T09:52:39;101891.75;;;2.43;96.99
51468;BME280;37545;45.302;-122.946;2023-02-12T09:55:14;101889.28;;;2.44;97.50
51468;BME280;37545;45.302;-122.946;2023-02-12T09:57:44;101900.41;;;2.45;97.16
51468;BME280;37545;45.302;-122.946;2023-02-12T10:00:17;101905.41;;;2.43;96.80
51468;BME280;37545;45.302;-122.946;2023-02-12T10:02:52;101904.38;;;2.41;95.90
51468;BME280;37545;45.302;-122.946;2023-02-12T10:05:25;101910.25;;;2.40;96.36
51468;BME280;37545;45.302;-122.946;2023-02-12T10:11:16;101914.34;;;2.38;95.76
51468;BME280;37545;45.302;-122.946;2023-02-12T10:13:53;101904.53;;;2.33;95.92
51468;BME280;37545;45.302;-122.946;2023-02-12T10:16:36;101912.31;;;2.34;96.82
51468;BME280;37545;45.302;-122.946;2023-02-12T10:19:21;101927.66;;;2.34;97.20
51468;BME280;37545;45.302;-122.946;2023-02-12T10:22:03;101924.19;;;2.34;96.47
51468;BME280;37545;45.302;-122.946;2023-02-12T10:24:47;101926.63;;;2.32;95.99
51468;BME280;37545;45.302;-122.946;2023-02-12T10:27:22;101923.81;;;2.29;95.42
51468;BME280;37545;45.302;-122.946;2023-02-12T10:29:54;101931.09;;;2.24;95.97
51468;BME280;37545;45.302;-122.946;2023-02-12T10:32:27;101934.19;;;2.20;96.44
51468;BME280;37545;45.302;-122.946;2023-02-12T10:34:59;101939.16;;;2.19;95.82
51468;BME280;37545;45.302;-122.946;2023-02-12T10:37:32;101941.56;;;2.17;96.14
51468;BME280;37545;45.302;-122.946;2023-02-12T10:40:05;101944.91;;;2.16;96.88
51468;BME280;37545;45.302;-122.946;2023-02-12T10:42:43;101940.56;;;2.15;97.11
51468;BME280;37545;45.302;-122.946;2023-02-12T10:45:13;101926.78;;;2.13;97.18
51468;BME280;37545;45.302;-122.946;2023-02-12T10:47:43;101925.13;;;2.14;97.94
51468;BME280;37545;45.302;-122.946;2023-02-12T10:50:19;101930.22;;;2.14;97.82
51468;BME280;37545;45.302;-122.946;2023-02-12T10:52:54;101914.78;;;2.12;97.66
51468;BME280;37545;45.302;-122.946;2023-02-12T10:55:25;101928.06;;;2.08;96.63
51468;BME280;37545;45.302;-122.946;2023-02-12T10:57:55;101919.38;;;2.06;98.23
51468;BME280;37545;45.302;-122.946;2023-02-12T11:00:28;101921.19;;;2.07;97.41
51468;BME280;37545;45.302;-122.946;2023-02-12T11:03:08;101916.97;;;2.07;98.16
51468;BME280;37545;45.302;-122.946;2023-02-12T11:05:46;101922.72;;;2.05;98.18
51468;BME280;37545;45.302;-122.946;2023-02-12T11:08:34;101929.34;;;2.03;97.80
51468;BME280;37545;45.302;-122.946;2023-02-12T11:11:10;101925.03;;;2.02;97.53
51468;BME280;37545;45.302;-122.946;2023-02-12T11:13:40;101923.22;;;2.01;97.03
51468;BME280;37545;45.302;-122.946;2023-02-12T11:16:11;101930.88;;;2.01;97.38
51468;BME280;37545;45.302;-122.946;2023-02-12T11:18:41;101936.88;;;2.01;97.66
51468;BME280;37545;45.302;-122.946;2023-02-12T11:21:11;101941.09;;;2.01;98.97
51468;BME280;37545;45.302;-122.946;2023-02-12T11:23:42;101957.28;;;2.01;97.65
51468;BME280;37545;45.302;-122.946;2023-02-12T11:26:25;101946.84;;;1.98;97.27
51468;BME280;37545;45.302;-122.946;2023-02-12T11:28:55;101933.69;;;1.94;97.38
51468;BME280;37545;45.302;-122.946;2023-02-12T11:31:30;101929.47;;;1.94;97.56
51468;BME280;37545;45.302;-122.946;2023-02-12T11:34:12;101924.75;;;1.88;98.65
51468;BME280;37545;45.302;-122.946;2023-02-12T11:36:42;101905.34;;;1.80;99.54
51468;BME280;37545;45.302;-122.946;2023-02-12T11:39:19;101906.41;;;1.72;99.13
51468;BME280;37545;45.302;-122.946;2023-02-12T11:41:52;101920.53;;;1.68;100.00
51468;BME280;37545;45.302;-122.946;2023-02-12T11:44:23;101909.69;;;1.71;100.00
51468;BME280;37545;45.302;-122.946;2023-02-12T11:46:55;101906.66;;;1.75;100.00
51468;BME280;37545;45.302;-122.946;2023-02-12T11:49:29;101916.22;;;1.78;100.00
51468;BME280;37545;45.302;-122.946;2023-02-12T11:52:00;101912.00;;;1.78;98.96
51468;BME280;37545;45.302;-122.946;2023-02-12T11:54:38;101901.78;;;1.78;98.45
51468;BME280;37545;45.302;-122.946;2023-02-12T11:59:53;101895.94;;;1.79;98.63
51468;BME280;37545;45.302;-122.946;2023-02-12T12:02:26;101899.38;;;1.80;98.43
51468;BME280;37545;45.302;-122.946;2023-02-12T12:05:05;101907.16;;;1.81;98.93
51468;BME280;37545;45.302;-122.946;2023-02-12T12:07:36;101897.84;;;1.82;99.58
51468;BME280;37545;45.302;-122.946;2023-02-12T12:10:14;101892.59;;;1.80;99.25
51468;BME280;37545;45.302;-122.946;2023-02-12T12:12:48;101904.47;;;1.80;99.47
51468;BME280;37545;45.302;-122.946;2023-02-12T12:15:22;101904.34;;;1.78;98.47
51468;BME280;37545;45.302;-122.946;2023-02-12T12:18:18;101890.31;;;1.73;98.21
51468;BME280;37545;45.302;-122.946;2023-02-12T12:21:10;101902.19;;;1.73;98.79
51468;BME280;37545;45.302;-122.946;2023-02-12T12:23:43;101901.00;;;1.69;98.63
51468;BME280;37545;45.302;-122.946;2023-02-12T12:26:21;101890.56;;;1.66;98.66
51468;BME280;37545;45.302;-122.946;2023-02-12T12:28:56;101890.56;;;1.66;99.63
51468;BME280;37545;45.302;-122.946;2023-02-12T12:31:31;101894.13;;;1.68;99.13
51468;BME280;37545;45.302;-122.946;2023-02-12T12:34:05;101883.94;;;1.68;98.42
51468;BME280;37545;45.302;-122.946;2023-02-12T12:36:59;101880.38;;;1.66;98.58
51468;BME280;37545;45.302;-122.946;2023-02-12T12:39:35;101882.13;;;1.67;97.59
51468;BME280;37545;45.302;-122.946;2023-02-12T12:45:31;101890.31;;;1.63;97.24
51468;BME280;37545;45.302;-122.946;2023-02-12T12:48:13;101896.94;;;1.61;96.34
51468;BME280;37545;45.302;-122.946;2023-02-12T12:51:05;101901.78;;;1.58;97.68
51468;BME280;37545;45.302;-122.946;2023-02-12T12:53:46;101902.56;;;1.57;97.96
51468;BME280;37545;45.302;-122.946;2023-02-12T12:56:27;101896.44;;;1.55;97.08
51468;BME280;37545;45.302;-122.946;2023-02-12T12:59:19;101891.72;;;1.49;97.09
51468;BME280;37545;45.302;-122.946;2023-02-12T13:02:08;101888.00;;;1.45;98.18
51468;BME280;37545;45.302;-122.946;2023-02-12T13:05:07;101886.44;;;1.37;98.72
51468;BME280;37545;45.302;-122.946;2023-02-12T13:07:53;101885.06;;;1.31;99.92